ELY034 LLBG-OMDB
Flight info
| Callsign | ELY034 |
|---|---|
| Flight time | N/A |
| Altitude | 32000 |
| Route | BSA DCT SHM DCT ALMOD DCT MOGAP DCT DASPA DCT MAHDI DCT ULONI DCT PURAD DCT SALEH DCT PARIM DCT TORBA DCT KATAN DCT RABOL DCT MIXAN DCT AMBOD DCT ULDIB DCT KUSOL DCT NODLI DCT ENADO DCT KIVEL DCT BOVOS DCT GOLBA DCT TUMET DCT ITILA DCT IMLOT DCT PATAT DCT ORSAR DCT TATLA DCT VUTEB |
| Aircraft | B744/H-SDE1E2E3FGHIJ2J3J4J5M1RWXY/LB1D1 |
Departure
| Time | N/A |
|---|---|
| Airport | Ben Gurion International Airport (LLBG) |
Arrival
| Time | 2026-04-20 15:36 |
|---|---|
| Airport | Dubai International Airport (OMDB) |
| Time | Latitude | Longitude | Altitude | Speed | Heading |
|---|---|---|---|---|---|
| 2026-04-20 13:37 | 17.01104 | 55.80637 | 31866 ft | 530 kts | 51° |
| 2026-04-20 13:37 | 17.05194 | 55.87053 | 31858 ft | 529 kts | 51° |
| 2026-04-20 13:38 | 17.09270 | 55.93445 | 31852 ft | 529 kts | 51° |
| 2026-04-20 13:38 | 17.13314 | 55.99808 | 31858 ft | 528 kts | 51° |
| 2026-04-20 13:39 | 17.17383 | 56.06206 | 31853 ft | 528 kts | 51° |
| 2026-04-20 13:39 | 17.21454 | 56.12604 | 31856 ft | 528 kts | 51° |
| 2026-04-20 13:40 | 17.25519 | 56.19016 | 31859 ft | 528 kts | 51° |
| 2026-04-20 13:40 | 17.29585 | 56.25429 | 31858 ft | 528 kts | 51° |
| 2026-04-20 13:41 | 17.33615 | 56.31781 | 31859 ft | 527 kts | 51° |
| 2026-04-20 13:41 | 17.37665 | 56.38188 | 31851 ft | 527 kts | 51° |
| 2026-04-20 13:42 | 17.41722 | 56.44602 | 31843 ft | 527 kts | 51° |
| 2026-04-20 13:42 | 17.47784 | 56.54209 | 31842 ft | 527 kts | 51° |
| 2026-04-20 13:43 | 17.51803 | 56.60559 | 31843 ft | 525 kts | 51° |
| 2026-04-20 13:43 | 17.55828 | 56.66963 | 31844 ft | 526 kts | 51° |
| 2026-04-20 13:44 | 17.59862 | 56.73357 | 31848 ft | 526 kts | 51° |
| 2026-04-20 13:44 | 17.63892 | 56.79770 | 31852 ft | 526 kts | 51° |
| 2026-04-20 13:45 | 17.67901 | 56.86143 | 31856 ft | 527 kts | 51° |
| 2026-04-20 13:45 | 17.71928 | 56.92559 | 31852 ft | 527 kts | 51° |
| 2026-04-20 13:46 | 17.75960 | 56.98993 | 31851 ft | 527 kts | 51° |
| 2026-04-20 13:46 | 17.79996 | 57.05424 | 31848 ft | 527 kts | 51° |
| 2026-04-20 13:47 | 17.83993 | 57.11808 | 31848 ft | 527 kts | 51° |
| 2026-04-20 13:47 | 17.88016 | 57.18241 | 31848 ft | 527 kts | 51° |
| 2026-04-20 13:48 | 17.92034 | 57.24672 | 31850 ft | 527 kts | 51° |
| 2026-04-20 13:48 | 17.96052 | 57.31111 | 31850 ft | 527 kts | 52° |
| 2026-04-20 13:49 | 18.00071 | 57.37550 | 31851 ft | 527 kts | 52° |
| 2026-04-20 13:49 | 18.04075 | 57.43988 | 31852 ft | 525 kts | 52° |
| 2026-04-20 13:50 | 18.08082 | 57.50417 | 31853 ft | 525 kts | 52° |
| 2026-04-20 13:50 | 18.12080 | 57.56853 | 31852 ft | 526 kts | 52° |
| 2026-04-20 13:51 | 18.16078 | 57.63291 | 31856 ft | 526 kts | 52° |
| 2026-04-20 13:51 | 18.20053 | 57.69691 | 31854 ft | 526 kts | 52° |
| 2026-04-20 13:52 | 18.24050 | 57.76144 | 31851 ft | 526 kts | 52° |
| 2026-04-20 13:52 | 18.28045 | 57.82588 | 31852 ft | 526 kts | 52° |
| 2026-04-20 13:53 | 18.32036 | 57.89048 | 31856 ft | 525 kts | 52° |
| 2026-04-20 13:53 | 18.36198 | 57.95322 | 31858 ft | 519 kts | 43° |
| 2026-04-20 13:54 | 18.41663 | 58.00124 | 31859 ft | 508 kts | 26° |
| 2026-04-20 13:54 | 18.47894 | 58.03610 | 31853 ft | 507 kts | 24° |
| 2026-04-20 13:55 | 18.54114 | 58.07026 | 31853 ft | 507 kts | 24° |
| 2026-04-20 13:55 | 18.60362 | 58.10481 | 31848 ft | 507 kts | 24° |
| 2026-04-20 13:56 | 18.66624 | 58.13924 | 31848 ft | 507 kts | 24° |
| 2026-04-20 13:56 | 18.71820 | 58.16797 | 31855 ft | 507 kts | 24° |
| 2026-04-20 13:57 | 18.78062 | 58.20245 | 31854 ft | 506 kts | 24° |
| 2026-04-20 13:57 | 18.84303 | 58.23699 | 31851 ft | 507 kts | 24° |
| 2026-04-20 13:58 | 18.90555 | 58.27158 | 31849 ft | 506 kts | 24° |
| 2026-04-20 13:58 | 18.96802 | 58.30618 | 31848 ft | 506 kts | 24° |
| 2026-04-20 13:59 | 19.03044 | 58.34080 | 31847 ft | 506 kts | 24° |
| 2026-04-20 13:59 | 19.09248 | 58.37521 | 31856 ft | 507 kts | 24° |
| 2026-04-20 14:00 | 19.15493 | 58.40991 | 31847 ft | 506 kts | 24° |
| 2026-04-20 14:00 | 19.21721 | 58.44451 | 31840 ft | 506 kts | 24° |
| 2026-04-20 14:01 | 19.27949 | 58.47913 | 31848 ft | 506 kts | 24° |
| 2026-04-20 14:01 | 19.34180 | 58.51384 | 31842 ft | 506 kts | 24° |
| 2026-04-20 14:02 | 19.40424 | 58.54866 | 31847 ft | 506 kts | 24° |
| 2026-04-20 14:02 | 19.46661 | 58.58339 | 31848 ft | 506 kts | 25° |
| 2026-04-20 14:03 | 19.52852 | 58.61802 | 31847 ft | 507 kts | 24° |
| 2026-04-20 14:03 | 19.59120 | 58.65296 | 31845 ft | 508 kts | 25° |
| 2026-04-20 14:04 | 19.65377 | 58.68799 | 31844 ft | 508 kts | 25° |
| 2026-04-20 14:04 | 19.71630 | 58.72299 | 31841 ft | 508 kts | 25° |
| 2026-04-20 14:05 | 19.77840 | 58.75777 | 31842 ft | 508 kts | 25° |
| 2026-04-20 14:05 | 19.84092 | 58.79283 | 31844 ft | 509 kts | 25° |
| 2026-04-20 14:06 | 19.90373 | 58.82806 | 31843 ft | 510 kts | 25° |
| 2026-04-20 14:06 | 19.96653 | 58.86338 | 31844 ft | 510 kts | 25° |
| 2026-04-20 14:07 | 20.02943 | 58.89869 | 31844 ft | 510 kts | 25° |
| 2026-04-20 14:07 | 20.09223 | 58.93409 | 31843 ft | 511 kts | 25° |
| 2026-04-20 14:08 | 20.15509 | 58.96944 | 31845 ft | 511 kts | 25° |
| 2026-04-20 14:08 | 20.21765 | 59.00474 | 31840 ft | 512 kts | 25° |
| 2026-04-20 14:09 | 20.28060 | 59.04024 | 31844 ft | 512 kts | 25° |
| 2026-04-20 14:09 | 20.34357 | 59.07582 | 31847 ft | 513 kts | 25° |
| 2026-04-20 14:10 | 20.40669 | 59.11150 | 31844 ft | 513 kts | 25° |
| 2026-04-20 14:10 | 20.46980 | 59.14721 | 31845 ft | 513 kts | 25° |
| 2026-04-20 14:11 | 20.53293 | 59.18297 | 31844 ft | 514 kts | 25° |
| 2026-04-20 14:11 | 20.59606 | 59.21875 | 31844 ft | 514 kts | 26° |
| 2026-04-20 14:12 | 20.65889 | 59.25441 | 31848 ft | 515 kts | 26° |
| 2026-04-20 14:12 | 20.72220 | 59.29036 | 31845 ft | 515 kts | 26° |
| 2026-04-20 14:13 | 20.78537 | 59.32629 | 31846 ft | 515 kts | 26° |
| 2026-04-20 14:13 | 20.84877 | 59.36236 | 31846 ft | 515 kts | 26° |
| 2026-04-20 14:14 | 20.91210 | 59.39844 | 31846 ft | 517 kts | 26° |
| 2026-04-20 14:14 | 20.97564 | 59.43463 | 31849 ft | 518 kts | 26° |
| 2026-04-20 14:15 | 21.03915 | 59.47095 | 31847 ft | 517 kts | 26° |
| 2026-04-20 14:15 | 21.10275 | 59.50725 | 31848 ft | 517 kts | 26° |
| 2026-04-20 14:16 | 21.16624 | 59.54355 | 31849 ft | 517 kts | 26° |
| 2026-04-20 14:16 | 21.22984 | 59.57995 | 31851 ft | 518 kts | 26° |
| 2026-04-20 14:17 | 21.29306 | 59.61619 | 31852 ft | 519 kts | 26° |
| 2026-04-20 14:17 | 21.35726 | 59.65303 | 31849 ft | 520 kts | 26° |
| 2026-04-20 14:18 | 21.42110 | 59.68962 | 31851 ft | 520 kts | 26° |
| 2026-04-20 14:18 | 21.48452 | 59.72614 | 31847 ft | 521 kts | 26° |
| 2026-04-20 14:19 | 21.54896 | 59.76166 | 31859 ft | 519 kts | 19° |
| 2026-04-20 14:19 | 21.61863 | 59.78084 | 31851 ft | 517 kts | 10° |
| 2026-04-20 14:20 | 21.68919 | 59.79612 | 31853 ft | 517 kts | 10° |
| 2026-04-20 14:20 | 21.75972 | 59.81187 | 31848 ft | 518 kts | 10° |
| 2026-04-20 14:21 | 21.83042 | 59.82739 | 31846 ft | 518 kts | 10° |
| 2026-04-20 14:21 | 21.90108 | 59.84306 | 31847 ft | 519 kts | 10° |
| 2026-04-20 14:22 | 21.97175 | 59.85868 | 31853 ft | 519 kts | 10° |
| 2026-04-20 14:22 | 22.04248 | 59.87433 | 31850 ft | 519 kts | 10° |
| 2026-04-20 14:23 | 22.11280 | 59.89000 | 31846 ft | 519 kts | 10° |
| 2026-04-20 14:23 | 22.18375 | 59.90571 | 31847 ft | 520 kts | 10° |
| 2026-04-20 14:24 | 22.25461 | 59.92147 | 31846 ft | 519 kts | 10° |
| 2026-04-20 14:24 | 22.32574 | 59.93378 | 31851 ft | 517 kts | 359° |
| 2026-04-20 14:25 | 22.39645 | 59.92243 | 31853 ft | 515 kts | 340° |
| 2026-04-20 14:25 | 22.45884 | 59.88619 | 31850 ft | 514 kts | 321° |
| 2026-04-20 14:26 | 22.51456 | 59.83775 | 31846 ft | 514 kts | 320° |
| 2026-04-20 14:26 | 22.57015 | 59.78893 | 31843 ft | 514 kts | 321° |
| 2026-04-20 14:27 | 22.62580 | 59.74029 | 31837 ft | 515 kts | 320° |
| 2026-04-20 14:27 | 22.68136 | 59.69146 | 31837 ft | 514 kts | 320° |
| 2026-04-20 14:28 | 22.73706 | 59.64264 | 31833 ft | 514 kts | 320° |
| 2026-04-20 14:28 | 22.79261 | 59.59371 | 31838 ft | 515 kts | 320° |
| 2026-04-20 14:29 | 22.84827 | 59.54481 | 31834 ft | 514 kts | 320° |
| 2026-04-20 14:29 | 22.90350 | 59.49617 | 31835 ft | 515 kts | 320° |
| 2026-04-20 14:30 | 22.95898 | 59.44719 | 31836 ft | 514 kts | 320° |
| 2026-04-20 14:30 | 23.01455 | 59.39823 | 31835 ft | 514 kts | 320° |
| 2026-04-20 14:31 | 23.06998 | 59.34917 | 31826 ft | 514 kts | 320° |
| 2026-04-20 14:31 | 23.12542 | 59.30013 | 31817 ft | 514 kts | 320° |
| 2026-04-20 14:32 | 23.18087 | 59.25105 | 31817 ft | 514 kts | 320° |
| 2026-04-20 14:32 | 23.23380 | 59.20410 | 31822 ft | 514 kts | 320° |
| 2026-04-20 14:33 | 23.28924 | 59.15489 | 31817 ft | 514 kts | 320° |
| 2026-04-20 14:33 | 23.34471 | 59.10558 | 31814 ft | 514 kts | 320° |
| 2026-04-20 14:34 | 23.40009 | 59.05636 | 31812 ft | 514 kts | 320° |
| 2026-04-20 14:34 | 23.45544 | 59.00700 | 31814 ft | 514 kts | 320° |
| 2026-04-20 14:35 | 23.51082 | 58.95765 | 31824 ft | 514 kts | 320° |
| 2026-04-20 14:35 | 23.56622 | 58.90824 | 31822 ft | 515 kts | 320° |
| 2026-04-20 14:36 | 23.62158 | 58.85871 | 31815 ft | 515 kts | 319° |
| 2026-04-20 14:36 | 23.67699 | 58.80919 | 31809 ft | 515 kts | 319° |
| 2026-04-20 14:37 | 23.72953 | 58.75604 | 31807 ft | 515 kts | 315° |
| 2026-04-20 14:37 | 23.78182 | 58.70252 | 31807 ft | 516 kts | 316° |
| 2026-04-20 14:38 | 23.83380 | 58.64915 | 31807 ft | 516 kts | 315° |
| 2026-04-20 14:38 | 23.88616 | 58.59543 | 31812 ft | 516 kts | 315° |
| 2026-04-20 14:39 | 23.93854 | 58.54158 | 31813 ft | 516 kts | 315° |
| 2026-04-20 14:39 | 23.99087 | 58.48769 | 31826 ft | 516 kts | 315° |
| 2026-04-20 14:40 | 24.04291 | 58.43409 | 31828 ft | 516 kts | 315° |
| 2026-04-20 14:40 | 24.09520 | 58.38015 | 31836 ft | 515 kts | 315° |
| 2026-04-20 14:41 | 24.14736 | 58.32629 | 31828 ft | 516 kts | 315° |
| 2026-04-20 14:41 | 24.19962 | 58.27223 | 31830 ft | 516 kts | 315° |
| 2026-04-20 14:42 | 24.25152 | 58.21852 | 31836 ft | 516 kts | 315° |
| 2026-04-20 14:42 | 24.30369 | 58.16445 | 31831 ft | 516 kts | 315° |
| 2026-04-20 14:43 | 24.35588 | 58.11028 | 31834 ft | 515 kts | 315° |
| 2026-04-20 14:43 | 24.39916 | 58.06535 | 31832 ft | 515 kts | 315° |
| 2026-04-20 14:44 | 24.45963 | 58.00248 | 31831 ft | 515 kts | 315° |
| 2026-04-20 14:44 | 24.50322 | 57.95705 | 31830 ft | 515 kts | 315° |
| 2026-04-20 14:45 | 24.55521 | 57.90281 | 31836 ft | 516 kts | 315° |
| 2026-04-20 14:45 | 24.60726 | 57.84856 | 31832 ft | 516 kts | 315° |
| 2026-04-20 14:46 | 24.65896 | 57.79444 | 31834 ft | 516 kts | 315° |
| 2026-04-20 14:46 | 24.71101 | 57.74009 | 31832 ft | 516 kts | 315° |
| 2026-04-20 14:47 | 24.76309 | 57.68547 | 31827 ft | 516 kts | 315° |
| 2026-04-20 14:48 | 24.84116 | 57.60358 | 31830 ft | 516 kts | 315° |
| 2026-04-20 14:48 | 24.89319 | 57.54893 | 31824 ft | 516 kts | 315° |
| 2026-04-20 14:49 | 24.94477 | 57.49467 | 31824 ft | 516 kts | 315° |
| 2026-04-20 14:49 | 24.99658 | 57.44006 | 31824 ft | 515 kts | 315° |
| 2026-04-20 14:50 | 25.04837 | 57.38550 | 31813 ft | 515 kts | 315° |
| 2026-04-20 14:50 | 25.10014 | 57.33079 | 31814 ft | 515 kts | 314° |
| 2026-04-20 14:51 | 25.15196 | 57.27601 | 31819 ft | 515 kts | 315° |
| 2026-04-20 14:51 | 25.20368 | 57.22127 | 31818 ft | 515 kts | 314° |
| 2026-04-20 14:52 | 25.25355 | 57.16843 | 31821 ft | 515 kts | 314° |
| 2026-04-20 14:52 | 25.30458 | 57.11283 | 31818 ft | 515 kts | 313° |
| 2026-04-20 14:53 | 25.35465 | 57.05708 | 31820 ft | 515 kts | 313° |
| 2026-04-20 14:53 | 25.40482 | 57.00051 | 31826 ft | 514 kts | 313° |
| 2026-04-20 14:54 | 25.45499 | 56.94409 | 31826 ft | 514 kts | 313° |
| 2026-04-20 14:54 | 25.50510 | 56.88766 | 31823 ft | 513 kts | 313° |
| 2026-04-20 14:55 | 25.55510 | 56.83122 | 31829 ft | 513 kts | 313° |
| 2026-04-20 14:55 | 25.60512 | 56.77472 | 31827 ft | 514 kts | 313° |
| 2026-04-20 14:56 | 25.65516 | 56.71812 | 31833 ft | 513 kts | 313° |
| 2026-04-20 14:56 | 25.70515 | 56.66150 | 31834 ft | 513 kts | 313° |
| 2026-04-20 14:57 | 25.75482 | 56.60521 | 31832 ft | 513 kts | 313° |
| 2026-04-20 14:57 | 25.80473 | 56.54851 | 31840 ft | 513 kts | 313° |
| 2026-04-20 14:58 | 25.85472 | 56.49172 | 31837 ft | 513 kts | 313° |
| 2026-04-20 14:58 | 25.90458 | 56.43496 | 31827 ft | 513 kts | 313° |
| 2026-04-20 14:59 | 25.95442 | 56.37812 | 31818 ft | 513 kts | 313° |
| 2026-04-20 14:59 | 26.00397 | 56.32160 | 31807 ft | 513 kts | 313° |
| 2026-04-20 15:00 | 26.05204 | 56.26670 | 31790 ft | 512 kts | 313° |
| 2026-04-20 15:00 | 26.10187 | 56.20961 | 31776 ft | 513 kts | 313° |
| 2026-04-20 15:01 | 26.15141 | 56.15293 | 31775 ft | 514 kts | 312° |
| 2026-04-20 15:01 | 26.20118 | 56.09577 | 31792 ft | 514 kts | 312° |
| 2026-04-20 15:02 | 26.24163 | 56.03101 | 31810 ft | 510 kts | 293° |
| 2026-04-20 15:02 | 26.26053 | 55.95524 | 31820 ft | 508 kts | 275° |
| 2026-04-20 15:03 | 26.25805 | 55.87669 | 31828 ft | 507 kts | 264° |
| 2026-04-20 15:03 | 26.25103 | 55.79895 | 31832 ft | 507 kts | 264° |
| 2026-04-20 15:04 | 26.24409 | 55.72082 | 31835 ft | 506 kts | 264° |
| 2026-04-20 15:04 | 26.23706 | 55.64285 | 31830 ft | 505 kts | 264° |
| 2026-04-20 15:05 | 26.23002 | 55.56490 | 31831 ft | 504 kts | 264° |
| 2026-04-20 15:05 | 26.22296 | 55.48731 | 31833 ft | 503 kts | 264° |
| 2026-04-20 15:06 | 26.21584 | 55.40979 | 31832 ft | 503 kts | 264° |
| 2026-04-20 15:06 | 26.20872 | 55.33284 | 31831 ft | 502 kts | 264° |
| 2026-04-20 15:07 | 26.20160 | 55.25542 | 31832 ft | 503 kts | 264° |
| 2026-04-20 15:07 | 26.19430 | 55.17799 | 31834 ft | 502 kts | 264° |
| 2026-04-20 15:08 | 26.18715 | 55.10082 | 31836 ft | 500 kts | 264° |
| 2026-04-20 15:08 | 26.17987 | 55.02419 | 31835 ft | 500 kts | 264° |
| 2026-04-20 15:09 | 26.17255 | 54.94721 | 31835 ft | 501 kts | 264° |
| 2026-04-20 15:09 | 26.16525 | 54.87021 | 31838 ft | 500 kts | 264° |
| 2026-04-20 15:10 | 26.15786 | 54.79328 | 31838 ft | 500 kts | 264° |
| 2026-04-20 15:10 | 26.15039 | 54.71636 | 31838 ft | 499 kts | 264° |
| 2026-04-20 15:11 | 26.13732 | 54.64045 | 31847 ft | 503 kts | 250° |
| 2026-04-20 15:11 | 26.12158 | 54.60567 | 31850 ft | 505 kts | 239° |
| 2026-04-20 15:11 | 26.10024 | 54.57509 | 31705 ft | 510 kts | 228° |
| 2026-04-20 15:11 | 26.07297 | 54.54901 | 31547 ft | 512 kts | 217° |
| 2026-04-20 15:12 | 26.04225 | 54.52984 | 31393 ft | 515 kts | 206° |
| 2026-04-20 15:12 | 26.01053 | 54.51808 | 31250 ft | 519 kts | 195° |
| 2026-04-20 15:12 | 25.97467 | 54.51273 | 31104 ft | 523 kts | 184° |
| 2026-04-20 15:12 | 25.93824 | 54.51517 | 30955 ft | 528 kts | 173° |
| 2026-04-20 15:13 | 25.90253 | 54.52539 | 30808 ft | 532 kts | 162° |
| 2026-04-20 15:13 | 25.86906 | 54.54306 | 30665 ft | 536 kts | 151° |
| 2026-04-20 15:13 | 25.83880 | 54.56749 | 30431 ft | 540 kts | 141° |
| 2026-04-20 15:13 | 25.81273 | 54.59762 | 29794 ft | 543 kts | 129° |
| 2026-04-20 15:14 | 25.79105 | 54.63189 | 29065 ft | 540 kts | 126° |
| 2026-04-20 15:14 | 25.76992 | 54.66549 | 28204 ft | 520 kts | 127° |
| 2026-04-20 15:14 | 25.74949 | 54.69817 | 27331 ft | 515 kts | 126° |
| 2026-04-20 15:14 | 25.72943 | 54.73092 | 26530 ft | 510 kts | 127° |
| 2026-04-20 15:15 | 25.70900 | 54.76208 | 25774 ft | 493 kts | 130° |
| 2026-04-20 15:15 | 25.68648 | 54.79065 | 25054 ft | 491 kts | 137° |
| 2026-04-20 15:15 | 25.66176 | 54.81586 | 24354 ft | 489 kts | 142° |
| 2026-04-20 15:15 | 25.63583 | 54.84000 | 23647 ft | 480 kts | 140° |
| 2026-04-20 15:16 | 25.61345 | 54.86699 | 22877 ft | 471 kts | 127° |
| 2026-04-20 15:16 | 25.59715 | 54.89794 | 22064 ft | 459 kts | 114° |
| 2026-04-20 15:16 | 25.58537 | 54.93006 | 21235 ft | 442 kts | 111° |
| 2026-04-20 15:16 | 25.57483 | 54.96148 | 20422 ft | 427 kts | 112° |
| 2026-04-20 15:17 | 25.56347 | 54.99127 | 19640 ft | 413 kts | 115° |
| 2026-04-20 15:17 | 25.55155 | 55.01971 | 18878 ft | 402 kts | 115° |
| 2026-04-20 15:17 | 25.53920 | 55.04690 | 18148 ft | 390 kts | 120° |
| 2026-04-20 15:17 | 25.52609 | 55.07281 | 17302 ft | 382 kts | 120° |
| 2026-04-20 15:18 | 25.51293 | 55.09825 | 16484 ft | 380 kts | 120° |
| 2026-04-20 15:18 | 25.49974 | 55.12334 | 15701 ft | 376 kts | 120° |
| 2026-04-20 15:18 | 25.48679 | 55.14822 | 14944 ft | 372 kts | 119° |
| 2026-04-20 15:18 | 25.47418 | 55.17264 | 14209 ft | 368 kts | 119° |
| 2026-04-20 15:19 | 25.46129 | 55.19693 | 13464 ft | 364 kts | 125° |
| 2026-04-20 15:19 | 25.44524 | 55.21852 | 12683 ft | 362 kts | 131° |
| 2026-04-20 15:19 | 25.42832 | 55.23875 | 11901 ft | 355 kts | 133° |
| 2026-04-20 15:19 | 25.41167 | 55.25853 | 11128 ft | 347 kts | 131° |
| 2026-04-20 15:20 | 25.39568 | 55.27829 | 10382 ft | 341 kts | 131° |
| 2026-04-20 15:20 | 25.38005 | 55.29778 | 9641 ft | 336 kts | 131° |
| 2026-04-20 15:20 | 25.36456 | 55.31677 | 8821 ft | 330 kts | 133° |
| 2026-04-20 15:20 | 25.34690 | 55.33255 | 8086 ft | 323 kts | 149° |
| 2026-04-20 15:21 | 25.32726 | 55.34434 | 7343 ft | 320 kts | 153° |
| 2026-04-20 15:21 | 25.30788 | 55.35502 | 6919 ft | 306 kts | 153° |
| 2026-04-20 15:21 | 25.28959 | 55.36556 | 6843 ft | 291 kts | 151° |
| 2026-04-20 15:21 | 25.27196 | 55.37607 | 6834 ft | 282 kts | 151° |
| 2026-04-20 15:22 | 25.25511 | 55.38603 | 6843 ft | 274 kts | 151° |
| 2026-04-20 15:22 | 25.23817 | 55.39591 | 6840 ft | 274 kts | 152° |
| 2026-04-20 15:22 | 25.22118 | 55.40583 | 6846 ft | 275 kts | 152° |
| 2026-04-20 15:22 | 25.20421 | 55.41580 | 6847 ft | 276 kts | 152° |
| 2026-04-20 15:23 | 25.18730 | 55.42568 | 6844 ft | 276 kts | 152° |
| 2026-04-20 15:23 | 25.17027 | 55.43561 | 6847 ft | 276 kts | 152° |
| 2026-04-20 15:23 | 25.15331 | 55.44553 | 6846 ft | 276 kts | 152° |
| 2026-04-20 15:23 | 25.13638 | 55.45544 | 6846 ft | 275 kts | 152° |
| 2026-04-20 15:24 | 25.11949 | 55.46547 | 6844 ft | 275 kts | 147° |
| 2026-04-20 15:24 | 25.10585 | 55.47988 | 6853 ft | 273 kts | 123° |
| 2026-04-20 15:24 | 25.09576 | 55.49763 | 6850 ft | 272 kts | 118° |
| 2026-04-20 15:24 | 25.08630 | 55.51574 | 6840 ft | 273 kts | 119° |
| 2026-04-20 15:25 | 25.07653 | 55.53356 | 6661 ft | 264 kts | 120° |
| 2026-04-20 15:25 | 25.06689 | 55.55049 | 6482 ft | 259 kts | 121° |
| 2026-04-20 15:25 | 25.05755 | 55.56704 | 6315 ft | 256 kts | 120° |
| 2026-04-20 15:25 | 25.04818 | 55.58381 | 6128 ft | 256 kts | 120° |
| 2026-04-20 15:26 | 25.03884 | 55.60054 | 5945 ft | 256 kts | 120° |
| 2026-04-20 15:26 | 25.02959 | 55.61725 | 5775 ft | 254 kts | 120° |
| 2026-04-20 15:26 | 25.02043 | 55.63390 | 5616 ft | 254 kts | 120° |
| 2026-04-20 15:26 | 25.01127 | 55.65046 | 5430 ft | 253 kts | 120° |
| 2026-04-20 15:27 | 25.00211 | 55.66699 | 5272 ft | 252 kts | 121° |
| 2026-04-20 15:27 | 24.99290 | 55.68340 | 5061 ft | 252 kts | 121° |
| 2026-04-20 15:27 | 24.98373 | 55.69971 | 4816 ft | 250 kts | 121° |
| 2026-04-20 15:27 | 24.97438 | 55.71640 | 4605 ft | 260 kts | 121° |
| 2026-04-20 15:28 | 24.96493 | 55.73337 | 4381 ft | 261 kts | 117° |
| 2026-04-20 15:28 | 24.96024 | 55.75243 | 4152 ft | 259 kts | 88° |
| 2026-04-20 15:28 | 24.96460 | 55.77138 | 3972 ft | 267 kts | 59° |
| 2026-04-20 15:28 | 24.97705 | 55.78612 | 3792 ft | 267 kts | 30° |
| 2026-04-20 15:29 | 24.99441 | 55.79247 | 3626 ft | 264 kts | 1° |
| 2026-04-20 15:29 | 25.01225 | 55.78888 | 3427 ft | 263 kts | 333° |
| 2026-04-20 15:29 | 25.02646 | 55.77672 | 3241 ft | 262 kts | 308° |
| 2026-04-20 15:29 | 25.03681 | 55.76015 | 3034 ft | 261 kts | 306° |
| 2026-04-20 15:30 | 25.04557 | 55.74274 | 2815 ft | 260 kts | 293° |
| 2026-04-20 15:30 | 25.05272 | 55.72451 | 2603 ft | 258 kts | 296° |
| 2026-04-20 15:30 | 25.06142 | 55.70718 | 2383 ft | 258 kts | 302° |
| 2026-04-20 15:30 | 25.07144 | 55.69080 | 2140 ft | 257 kts | 305° |
| 2026-04-20 15:31 | 25.08133 | 55.67446 | 1915 ft | 256 kts | 302° |
| 2026-04-20 15:31 | 25.09066 | 55.65787 | 1859 ft | 256 kts | 301° |
| 2026-04-20 15:31 | 25.09982 | 55.64103 | 1844 ft | 256 kts | 302° |
| 2026-04-20 15:31 | 25.10911 | 55.62421 | 1839 ft | 256 kts | 302° |
| 2026-04-20 15:32 | 25.11837 | 55.60748 | 1854 ft | 258 kts | 302° |
| 2026-04-20 15:32 | 25.12777 | 55.59051 | 1837 ft | 258 kts | 301° |
| 2026-04-20 15:32 | 25.13719 | 55.57351 | 1862 ft | 258 kts | 302° |
| 2026-04-20 15:32 | 25.14664 | 55.55644 | 1857 ft | 260 kts | 301° |
| 2026-04-20 15:33 | 25.15606 | 55.53941 | 1838 ft | 261 kts | 301° |
| 2026-04-20 15:33 | 25.16228 | 55.52818 | 1842 ft | 261 kts | 302° |
| 2026-04-20 15:33 | 25.17172 | 55.51114 | 1835 ft | 259 kts | 302° |
| 2026-04-20 15:33 | 25.18114 | 55.49412 | 1838 ft | 259 kts | 302° |
| 2026-04-20 15:34 | 25.19056 | 55.47711 | 1678 ft | 259 kts | 302° |
| 2026-04-20 15:34 | 25.19993 | 55.46018 | 1362 ft | 257 kts | 301° |
| 2026-04-20 15:34 | 25.20917 | 55.44349 | 1024 ft | 247 kts | 301° |
| 2026-04-20 15:34 | 25.21750 | 55.42840 | 720 ft | 221 kts | 301° |
| 2026-04-20 15:35 | 25.22534 | 55.41407 | 456 ft | 209 kts | 301° |
| 2026-04-20 15:35 | 25.23248 | 55.40116 | 219 ft | 190 kts | 301° |
| 2026-04-20 15:35 | 25.23892 | 55.38949 | 36 ft | 162 kts | 302° |
| 2026-04-20 15:35 | 25.24413 | 55.38005 | 37 ft | 128 kts | 302° |
| 2026-04-20 15:36 | 25.24823 | 55.37263 | 36 ft | 99 kts | 301° |
| 2026-04-20 15:36 | 25.25144 | 55.36637 | 35 ft | 86 kts | 310° |
| 2026-04-20 15:36 | 25.25452 | 55.36128 | 28 ft | 63 kts | 301° |
| 2026-04-20 15:36 | 25.25545 | 55.35820 | 28 ft | 30 kts | 255° |
| 2026-04-20 15:37 | 25.25463 | 55.35704 | 28 ft | 14 kts | 241° |
| 2026-04-20 15:37 | 25.25490 | 55.35589 | 28 ft | 19 kts | 299° |
| 2026-04-20 15:37 | 25.25559 | 55.35471 | 28 ft | 18 kts | 304° |
| 2026-04-20 15:37 | 25.25631 | 55.35355 | 28 ft | 19 kts | 306° |
| 2026-04-20 15:38 | 25.25707 | 55.35238 | 28 ft | 19 kts | 302° |
| 2026-04-20 15:38 | 25.25776 | 55.35110 | 28 ft | 20 kts | 299° |
| 2026-04-20 15:38 | 25.25846 | 55.34978 | 28 ft | 20 kts | 301° |
| 2026-04-20 15:38 | 25.25916 | 55.34841 | 28 ft | 21 kts | 300° |
| 2026-04-20 15:39 | 25.25996 | 55.34707 | 28 ft | 21 kts | 307° |
| 2026-04-20 15:39 | 25.26075 | 55.34566 | 28 ft | 22 kts | 297° |
| 2026-04-20 15:39 | 25.26150 | 55.34420 | 28 ft | 22 kts | 302° |
| 2026-04-20 15:39 | 25.26235 | 55.34279 | 28 ft | 22 kts | 302° |
| 2026-04-20 15:40 | 25.26327 | 55.34176 | 28 ft | 16 kts | 349° |
| 2026-04-20 15:40 | 25.26415 | 55.34131 | 28 ft | 10 kts | 307° |
| 2026-04-20 15:40 | 25.26442 | 55.34068 | 28 ft | 9 kts | 294° |
| 2026-04-20 15:40 | 25.26444 | 55.34028 | 28 ft | 3 kts | 256° |
| 2026-04-20 15:41 | 25.26434 | 55.34008 | 28 ft | 5 kts | 236° |
| 2026-04-20 15:41 | 25.26400 | 55.33983 | 28 ft | 7 kts | 207° |
| 2026-04-20 15:41 | 25.26375 | 55.33968 | 28 ft | 0 kts | 209° |
| 2026-04-20 15:41 | 25.26372 | 55.33966 | 28 ft | 2 kts | 209° |
| 2026-04-20 15:42 | 25.26366 | 55.33963 | 28 ft | 0 kts | 210° |